Sakaide Maru — 3EYR6 — position and weather

sailwx.info

Track history (hours):
 
Tides and Currents Weather Stations Pressure Air Temp Water Temp Dewpoint Dewpoint Depression Visibility Wind Speed Wind Dir Waves Ship Positions

Sakaide Maru

Last reported at 2017-Nov-04 21:09 UTC. Time now 2017-Nov-19 12:34 UTC.
Position N 34°35' E 134°51'.
Warning: this ship's position is 14 days out of date.

Length 255 m; draft 12.8 m.

Type: Ship. MMSI: 354898000.

Date/timePositionNaut miles runAvg speedWind from/ knotsBaromVisibWave heightAir tempDewpointWater temp
2017-Nov-04 21:09N 34°35' E 134°51'213.6
2017-Nov-04 21:00N 34°36' E 134°53'611.8
2017-Nov-04 20:30N 34°38' E 135°00'510.2
2017-Nov-04 20:00N 34°35' E 135°06'3 5.9
2017-Nov-04 19:30N 34°33' E 135°08'4 8.4
2017-Nov-04 19:00N 34°29' E 135°06'510.9
2017-Nov-04 18:30N 34°24' E 135°04'510.7
2017-Nov-04 18:00N 34°19' E 135°00'4 8.5
2017-Nov-04 17:30N 34°15' E 134°59'4 8.4
2017-Nov-04 17:00N 34°11' E 134°60'2 5.0
2017-Nov-04 16:30N 34°09' E 135°00'2 3.5
2017-Nov-04 16:00N 34°07' E 134°59'2 3.2
2017-Nov-04 15:30N 34°05' E 134°59'1 2.5
2017-Nov-04 15:00N 34°04' E 134°59'2 3.2
2017-Nov-04 14:30N 34°02' E 134°59'2 3.0
2017-Nov-04 13:58N 34°01' E 134°59'1 3.2
2017-Nov-04 13:30N 33°59' E 134°59'2 3.6
2017-Nov-04 12:53N 33°57' E 134°58'1 3.4
2017-Nov-04 12:29N 33°56' E 134°58'2 3.4
2017-Nov-04 12:00N 33°54' E 134°58'2 3.6
2017-Nov-04 11:30N 33°52' E 134°58'  
Track history (hours):
 
Tides and Currents Weather Stations Pressure Air Temp Water Temp Dewpoint Dewpoint Depression Visibility Wind Speed Wind Dir Waves Ship Positions

Sakaide Maru

Last reported at 2017-Nov-04 21:09 UTC. Time now 2017-Nov-19 12:34 UTC.
Position N 34°35' E 134°51'.
Warning: this ship's position is 14 days out of date.

Length 255 m; draft 12.8 m.

Type: Ship. MMSI: 354898000.

Date/timePositionNaut miles runAvg speedWind from/ knotsBaromVisibWave heightAir tempDewpointWater temp
2017-Nov-04 21:09N 34°35' E 134°51'213.6
2017-Nov-04 21:00N 34°36' E 134°53'611.8
2017-Nov-04 20:30N 34°38' E 135°00'510.2
2017-Nov-04 20:00N 34°35' E 135°06'3 5.9
2017-Nov-04 19:30N 34°33' E 135°08'4 8.4
2017-Nov-04 19:00N 34°29' E 135°06'510.9
2017-Nov-04 18:30N 34°24' E 135°04'510.7
2017-Nov-04 18:00N 34°19' E 135°00'4 8.5
2017-Nov-04 17:30N 34°15' E 134°59'4 8.4
2017-Nov-04 17:00N 34°11' E 134°60'2 5.0
2017-Nov-04 16:30N 34°09' E 135°00'2 3.5
2017-Nov-04 16:00N 34°07' E 134°59'2 3.2
2017-Nov-04 15:30N 34°05' E 134°59'1 2.5
2017-Nov-04 15:00N 34°04' E 134°59'2 3.2
2017-Nov-04 14:30N 34°02' E 134°59'2 3.0
2017-Nov-04 13:58N 34°01' E 134°59'1 3.2
2017-Nov-04 13:30N 33°59' E 134°59'2 3.6
2017-Nov-04 12:53N 33°57' E 134°58'1 3.4
2017-Nov-04 12:29N 33°56' E 134°58'2 3.4
2017-Nov-04 12:00N 33°54' E 134°58'2 3.6
2017-Nov-04 11:30N 33°52' E 134°58'  

Dump ship's entire track history